Time,TemperatureF,DewpointF,PressureIn,WindDirection,WindDirectionDegrees,WindSpeedMPH,WindSpeedGustMPH,Humidity,HourlyPrecipIn,Conditions,Clouds,dailyrainin,SolarRadiationWatts/m^2,SoftwareType,DateUTC
2013-02-20 00:32:00,37.0,11.0,-100.00,NNE,30,7.0,18.0,33,0.00,,,0.32,0.000000,,2013-02-20 05:32:00,
2013-02-20 00:43:00,37.0,11.0,-100.00,NNE,30,7.0,18.0,33,0.00,,,0.32,0.000000,,2013-02-20 05:43:00,
2013-02-20 00:52:00,37.0,11.0,-100.00,NNE,30,7.0,18.0,33,0.00,,,0.32,0.000000,,2013-02-20 05:52:00,
2013-02-20 01:02:00,37.0,11.0,-100.00,NNE,30,7.0,18.0,33,0.00,,,0.32,0.000000,,2013-02-20 06:02:00,
2013-02-20 01:32:00,35.0,12.0,-100.00,North,357,8.0,22.0,38,0.00,,,0.32,0.000000,,2013-02-20 06:32:00,
2013-02-20 01:42:00,35.0,12.0,-100.00,North,357,8.0,22.0,38,0.00,,,0.32,0.000000,,2013-02-20 06:42:00,
2013-02-20 01:52:00,35.0,12.0,-100.00,North,357,8.0,22.0,38,0.00,,,0.32,0.000000,,2013-02-20 06:52:00,
2013-02-20 02:02:00,35.0,12.0,-100.00,North,357,8.0,22.0,38,0.00,,,0.32,0.000000,,2013-02-20 07:02:00,
2013-02-20 04:32:00,33.0,9.0,-100.00,ENE,59,9.0,25.0,36,-99.99,,,0.31,0.000000,,2013-02-20 09:32:00,
2013-02-20 04:42:00,33.0,9.0,-100.00,ENE,59,9.0,25.0,36,-99.99,,,0.31,0.000000,,2013-02-20 09:42:00,
2013-02-20 04:52:00,33.0,9.0,-100.00,ENE,59,9.0,25.0,36,-99.99,,,0.31,0.000000,,2013-02-20 09:52:00,
2013-02-20 05:01:00,33.0,9.0,-100.00,ENE,59,9.0,25.0,36,-99.99,,,0.31,0.000000,,2013-02-20 10:01:00,
2013-02-20 05:32:00,32.0,7.0,-100.00,WNW,301,8.0,26.0,35,0.00,,,0.30,0.000000,,2013-02-20 10:32:00,
2013-02-20 05:42:00,32.0,7.0,-100.00,WNW,301,8.0,26.0,35,0.00,,,0.30,0.000000,,2013-02-20 10:42:00,
2013-02-20 05:52:00,32.0,7.0,-100.00,WNW,301,8.0,26.0,35,0.00,,,0.30,0.000000,,2013-02-20 10:52:00,
2013-02-20 06:32:00,33.0,8.0,-100.00,SE,134,7.0,33.0,34,0.00,,,0.30,0.000000,,2013-02-20 11:32:00,
2013-02-20 07:02:00,33.0,8.0,-100.00,SE,134,7.0,33.0,34,0.00,,,0.30,0.000000,,2013-02-20 12:02:00,
2013-02-20 07:32:00,33.0,3.0,-100.00,East,80,6.0,24.0,28,0.00,,,0.26,0.000000,,2013-02-20 12:32:00,
2013-02-20 09:32:00,37.0,1.0,-100.00,NNW,344,7.0,29.0,21,-99.99,,,0.21,245.000000,,2013-02-20 14:32:00,
2013-02-20 10:32:00,42.0,-4.0,-100.00,SSW,207,5.0,20.0,14,0.00,,,0.12,521.000000,,2013-02-20 15:32:00,
2013-02-20 11:32:00,46.0,-2.0,-100.00,NW,319,7.0,16.0,13,0.00,,,-99.99,756.000000,,2013-02-20 16:32:00,
2013-02-20 12:32:00,48.0,-2.0,-100.00,NW,311,5.0,16.0,12,0.00,,,0.00,820.000000,,2013-02-20 17:32:00,
2013-02-20 13:32:00,47.0,-5.0,-100.00,NW,317,7.0,16.0,11,0.00,,,0.00,686.000000,,2013-02-20 18:32:00,
2013-02-20 14:32:00,48.0,-6.0,-100.00,NNW,341,7.0,14.0,10,0.00,,,0.00,591.000000,,2013-02-20 19:32:00,
2013-02-20 15:31:00,46.0,-7.0,-100.00,NNW,331,5.0,15.0,10,0.00,,,0.00,521.000000,,2013-02-20 20:31:00,
2013-02-20 16:32:00,44.0,-11.0,-100.00,NW,307,5.0,16.0,9,0.00,,,0.00,167.000000,,2013-02-20 21:32:00,
2013-02-20 17:32:00,42.0,0.0,-100.00,NNW,345,6.0,14.0,17,0.00,,,0.00,76.000000,,2013-02-20 22:32:00,
2013-02-20 17:43:00,42.0,0.0,-100.00,NNW,345,6.0,14.0,17,0.00,,,0.00,76.000000,,2013-02-20 22:43:00,
2013-02-20 17:52:00,42.0,0.0,-100.00,NNW,345,6.0,14.0,17,0.00,,,0.00,76.000000,,2013-02-20 22:52:00,
2013-02-20 18:01:00,42.0,0.0,-100.00,NNW,345,6.0,14.0,17,0.00,,,0.00,76.000000,,2013-02-20 23:01:00,
2013-02-20 18:32:00,41.0,-2.0,-100.00,NNE,15,5.0,12.0,16,0.00,,,0.00,57.000000,,2013-02-20 23:32:00,
2013-02-20 19:32:00,39.0,-5.0,-100.00,NNE,21,7.0,13.0,15,0.00,,,0.00,4.000000,,2013-02-21 00:32:00,
2013-02-20 20:32:00,39.0,-3.0,-100.00,NNW,334,6.0,18.0,16,0.00,,,0.00,0.000000,,2013-02-21 01:32:00,
2013-02-20 21:32:00,38.0,2.0,-100.00,NE,42,5.0,14.0,21,0.00,,,0.00,0.000000,,2013-02-21 02:32:00,
2013-02-20 21:42:00,38.0,2.0,-100.00,NE,42,5.0,14.0,21,0.00,,,0.00,0.000000,,2013-02-21 02:42:00,
2013-02-20 21:52:00,38.0,2.0,-100.00,NE,42,5.0,14.0,21,0.00,,,0.00,0.000000,,2013-02-21 02:52:00,
2013-02-20 22:32:00,35.0,1.0,-100.00,SW,215,4.0,14.0,23,0.00,,,0.00,0.000000,,2013-02-21 03:32:00,
2013-02-20 23:32:00,36.0,3.0,-100.00,NE,55,4.0,6.0,24,0.00,,,0.00,0.000000,,2013-02-21 04:32:00,